sensor_id;sensor_type;location;lat;lon;timestamp;P1;durP1;ratioP1;P2;durP2;ratioP2
19312;SDS011;9791;50.820;4.406;2023-07-31T00:00:27;13.98;;;4.10;;
19312;SDS011;9791;50.820;4.406;2023-07-31T00:02:54;13.30;;;5.40;;
19312;SDS011;9791;50.820;4.406;2023-07-31T00:05:20;16.17;;;4.43;;
19312;SDS011;9791;50.820;4.406;2023-07-31T00:07:46;13.32;;;4.60;;
19312;SDS011;9791;50.820;4.406;2023-07-31T00:10:12;11.57;;;4.90;;
19312;SDS011;9791;50.820;4.406;2023-07-31T00:12:39;12.73;;;4.55;;
19312;SDS011;9791;50.820;4.406;2023-07-31T00:15:05;11.05;;;4.47;;
19312;SDS011;9791;50.820;4.406;2023-07-31T00:17:32;17.15;;;5.10;;
19312;SDS011;9791;50.820;4.406;2023-07-31T00:19:58;11.60;;;4.55;;
19312;SDS011;9791;50.820;4.406;2023-07-31T00:22:24;16.90;;;4.38;;
19312;SDS011;9791;50.820;4.406;2023-07-31T00:24:50;14.75;;;4.38;;
19312;SDS011;9791;50.820;4.406;2023-07-31T00:27:17;12.02;;;5.20;;
19312;SDS011;9791;50.820;4.406;2023-07-31T00:29:43;10.77;;;4.10;;
19312;SDS011;9791;50.820;4.406;2023-07-31T00:32:09;14.73;;;4.32;;
19312;SDS011;9791;50.820;4.406;2023-07-31T00:34:35;17.15;;;5.13;;
19312;SDS011;9791;50.820;4.406;2023-07-31T00:37:01;13.93;;;5.10;;
19312;SDS011;9791;50.820;4.406;2023-07-31T00:39:27;10.10;;;4.72;;
19312;SDS011;9791;50.820;4.406;2023-07-31T00:41:53;13.35;;;4.88;;
19312;SDS011;9791;50.820;4.406;2023-07-31T00:44:19;11.48;;;4.38;;
19312;SDS011;9791;50.820;4.406;2023-07-31T00:46:45;11.70;;;4.78;;
19312;SDS011;9791;50.820;4.406;2023-07-31T00:49:11;15.05;;;5.75;;
19312;SDS011;9791;50.820;4.406;2023-07-31T00:51:37;12.73;;;4.63;;
19312;SDS011;9791;50.820;4.406;2023-07-31T00:54:03;11.13;;;4.20;;
19312;SDS011;9791;50.820;4.406;2023-07-31T00:56:29;12.43;;;4.40;;
19312;SDS011;9791;50.820;4.406;2023-07-31T00:58:56;9.68;;;4.22;;
19312;SDS011;9791;50.820;4.406;2023-07-31T01:01:22;12.40;;;4.70;;
19312;SDS011;9791;50.820;4.406;2023-07-31T01:03:48;12.70;;;4.28;;
19312;SDS011;9791;50.820;4.406;2023-07-31T01:06:20;13.68;;;4.38;;
19312;SDS011;9791;50.820;4.406;2023-07-31T01:09:11;11.75;;;5.03;;
19312;SDS011;9791;50.820;4.406;2023-07-31T01:11:43;10.80;;;5.03;;
19312;SDS011;9791;50.820;4.406;2023-07-31T01:14:12;9.15;;;4.20;;
19312;SDS011;9791;50.820;4.406;2023-07-31T01:16:38;12.98;;;4.47;;
19312;SDS011;9791;50.820;4.406;2023-07-31T01:19:05;13.95;;;4.90;;
19312;SDS011;9791;50.820;4.406;2023-07-31T01:26:53;13.27;;;4.47;;
19312;SDS011;9791;50.820;4.406;2023-07-31T01:29:30;14.57;;;4.45;;
19312;SDS011;9791;50.820;4.406;2023-07-31T01:31:58;12.43;;;4.53;;
19312;SDS011;9791;50.820;4.406;2023-07-31T01:34:26;15.02;;;4.57;;
19312;SDS011;9791;50.820;4.406;2023-07-31T01:36:53;16.75;;;5.03;;
19312;SDS011;9791;50.820;4.406;2023-07-31T01:39:20;13.63;;;4.28;;
19312;SDS011;9791;50.820;4.406;2023-07-31T01:41:46;10.10;;;4.47;;
19312;SDS011;9791;50.820;4.406;2023-07-31T01:44:12;10.50;;;4.45;;
19312;SDS011;9791;50.820;4.406;2023-07-31T01:46:38;13.30;;;5.22;;
19312;SDS011;9791;50.820;4.406;2023-07-31T01:49:05;11.85;;;5.10;;
19312;SDS011;9791;50.820;4.406;2023-07-31T01:51:31;11.25;;;4.57;;
19312;SDS011;9791;50.820;4.406;2023-07-31T01:54:01;14.07;;;4.88;;
19312;SDS011;9791;50.820;4.406;2023-07-31T01:56:27;12.40;;;4.85;;
19312;SDS011;9791;50.820;4.406;2023-07-31T01:58:53;10.80;;;5.05;;
19312;SDS011;9791;50.820;4.406;2023-07-31T02:01:19;16.45;;;4.88;;
19312;SDS011;9791;50.820;4.406;2023-07-31T02:03:45;11.00;;;4.57;;
19312;SDS011;9791;50.820;4.406;2023-07-31T02:06:11;12.20;;;5.10;;
19312;SDS011;9791;50.820;4.406;2023-07-31T02:08:37;13.18;;;4.40;;
19312;SDS011;9791;50.820;4.406;2023-07-31T02:11:03;9.32;;;4.80;;
19312;SDS011;9791;50.820;4.406;2023-07-31T02:13:29;10.88;;;5.13;;
19312;SDS011;9791;50.820;4.406;2023-07-31T02:15:55;10.18;;;4.70;;
19312;SDS011;9791;50.820;4.406;2023-07-31T02:18:22;11.23;;;4.63;;
19312;SDS011;9791;50.820;4.406;2023-07-31T02:20:51;9.07;;;4.95;;
19312;SDS011;9791;50.820;4.406;2023-07-31T02:23:20;8.75;;;4.28;;
19312;SDS011;9791;50.820;4.406;2023-07-31T02:25:46;9.15;;;4.45;;
19312;SDS011;9791;50.820;4.406;2023-07-31T02:28:12;10.43;;;4.65;;
19312;SDS011;9791;50.820;4.406;2023-07-31T02:30:38;11.00;;;4.63;;
19312;SDS011;9791;50.820;4.406;2023-07-31T02:33:05;14.68;;;4.60;;
19312;SDS011;9791;50.820;4.406;2023-07-31T02:35:31;13.32;;;4.60;;
19312;SDS011;9791;50.820;4.406;2023-07-31T02:37:57;12.07;;;4.68;;
19312;SDS011;9791;50.820;4.406;2023-07-31T02:40:23;17.10;;;4.93;;
19312;SDS011;9791;50.820;4.406;2023-07-31T02:42:49;7.25;;;4.00;;
19312;SDS011;9791;50.820;4.406;2023-07-31T02:45:15;8.10;;;3.55;;
19312;SDS011;9791;50.820;4.406;2023-07-31T02:47:41;7.05;;;3.58;;
19312;SDS011;9791;50.820;4.406;2023-07-31T02:50:07;7.40;;;3.95;;
19312;SDS011;9791;50.820;4.406;2023-07-31T02:52:33;9.63;;;4.05;;
19312;SDS011;9791;50.820;4.406;2023-07-31T02:54:59;8.45;;;3.75;;
19312;SDS011;9791;50.820;4.406;2023-07-31T02:57:26;8.23;;;3.50;;
19312;SDS011;9791;50.820;4.406;2023-07-31T02:59:52;7.63;;;3.95;;
19312;SDS011;9791;50.820;4.406;2023-07-31T03:02:18;7.85;;;4.13;;
19312;SDS011;9791;50.820;4.406;2023-07-31T03:04:44;11.63;;;4.28;;
19312;SDS011;9791;50.820;4.406;2023-07-31T03:07:10;8.55;;;3.63;;
19312;SDS011;9791;50.820;4.406;2023-07-31T03:09:36;6.82;;;3.35;;
19312;SDS011;9791;50.820;4.406;2023-07-31T03:12:02;8.20;;;3.78;;
19312;SDS011;9791;50.820;4.406;2023-07-31T03:14:28;7.75;;;3.65;;
19312;SDS011;9791;50.820;4.406;2023-07-31T03:16:54;7.35;;;3.40;;
19312;SDS011;9791;50.820;4.406;2023-07-31T03:19:20;10.48;;;4.07;;
19312;SDS011;9791;50.820;4.406;2023-07-31T03:21:46;9.73;;;3.70;;
19312;SDS011;9791;50.820;4.406;2023-07-31T03:24:12;9.70;;;3.63;;
19312;SDS011;9791;50.820;4.406;2023-07-31T03:26:38;11.65;;;3.47;;
19312;SDS011;9791;50.820;4.406;2023-07-31T03:29:06;8.32;;;4.35;;
19312;SDS011;9791;50.820;4.406;2023-07-31T03:31:32;8.55;;;3.70;;
19312;SDS011;9791;50.820;4.406;2023-07-31T03:33:58;9.05;;;4.20;;
19312;SDS011;9791;50.820;4.406;2023-07-31T03:36:24;7.03;;;3.28;;
19312;SDS011;9791;50.820;4.406;2023-07-31T03:38:51;8.68;;;3.90;;
19312;SDS011;9791;50.820;4.406;2023-07-31T03:41:17;7.22;;;3.40;;
19312;SDS011;9791;50.820;4.406;2023-07-31T03:43:43;7.30;;;3.38;;
19312;SDS011;9791;50.820;4.406;2023-07-31T03:46:09;11.63;;;4.00;;
19312;SDS011;9791;50.820;4.406;2023-07-31T03:48:36;6.88;;;3.28;;
19312;SDS011;9791;50.820;4.406;2023-07-31T03:51:02;6.82;;;3.50;;
19312;SDS011;9791;50.820;4.406;2023-07-31T03:53:28;7.65;;;2.95;;
19312;SDS011;9791;50.820;4.406;2023-07-31T03:55:54;9.73;;;3.67;;
19312;SDS011;9791;50.820;4.406;2023-07-31T03:58:21;9.10;;;4.00;;
19312;SDS011;9791;50.820;4.406;2023-07-31T04:00:47;8.93;;;3.70;;
19312;SDS011;9791;50.820;4.406;2023-07-31T04:03:13;7.28;;;3.70;;
19312;SDS011;9791;50.820;4.406;2023-07-31T04:05:39;10.32;;;4.30;;
19312;SDS011;9791;50.820;4.406;2023-07-31T04:08:05;10.13;;;4.00;;
19312;SDS011;9791;50.820;4.406;2023-07-31T04:10:31;9.35;;;3.45;;
19312;SDS011;9791;50.820;4.406;2023-07-31T04:12:58;12.07;;;3.80;;
19312;SDS011;9791;50.820;4.406;2023-07-31T04:15:25;8.75;;;3.70;;
19312;SDS011;9791;50.820;4.406;2023-07-31T04:17:51;9.35;;;4.20;;
19312;SDS011;9791;50.820;4.406;2023-07-31T04:20:17;13.40;;;4.28;;
19312;SDS011;9791;50.820;4.406;2023-07-31T04:22:43;7.43;;;3.67;;
19312;SDS011;9791;50.820;4.406;2023-07-31T04:25:09;7.10;;;3.63;;
19312;SDS011;9791;50.820;4.406;2023-07-31T04:27:35;8.50;;;3.72;;
19312;SDS011;9791;50.820;4.406;2023-07-31T04:30:02;8.77;;;3.55;;
19312;SDS011;9791;50.820;4.406;2023-07-31T04:32:28;10.77;;;3.60;;
19312;SDS011;9791;50.820;4.406;2023-07-31T04:34:54;10.13;;;3.83;;
19312;SDS011;9791;50.820;4.406;2023-07-31T04:37:20;12.23;;;3.80;;
19312;SDS011;9791;50.820;4.406;2023-07-31T04:39:46;6.80;;;3.50;;
19312;SDS011;9791;50.820;4.406;2023-07-31T04:42:12;5.75;;;3.45;;
19312;SDS011;9791;50.820;4.406;2023-07-31T04:44:38;7.70;;;3.58;;
19312;SDS011;9791;50.820;4.406;2023-07-31T04:47:04;7.38;;;3.55;;
19312;SDS011;9791;50.820;4.406;2023-07-31T04:49:31;6.50;;;3.58;;
19312;SDS011;9791;50.820;4.406;2023-07-31T04:52:00;9.27;;;3.55;;
19312;SDS011;9791;50.820;4.406;2023-07-31T04:54:26;10.00;;;3.67;;
19312;SDS011;9791;50.820;4.406;2023-07-31T04:56:52;7.53;;;3.33;;
19312;SDS011;9791;50.820;4.406;2023-07-31T04:59:18;7.28;;;3.60;;
19312;SDS011;9791;50.820;4.406;2023-07-31T05:01:44;10.48;;;3.92;;
19312;SDS011;9791;50.820;4.406;2023-07-31T05:04:13;6.78;;;3.22;;
19312;SDS011;9791;50.820;4.406;2023-07-31T05:06:39;6.28;;;3.25;;
19312;SDS011;9791;50.820;4.406;2023-07-31T05:09:06;7.70;;;3.50;;
19312;SDS011;9791;50.820;4.406;2023-07-31T05:11:32;8.07;;;3.72;;
19312;SDS011;9791;50.820;4.406;2023-07-31T05:13:58;7.28;;;3.42;;
19312;SDS011;9791;50.820;4.406;2023-07-31T05:16:24;6.68;;;3.20;;
19312;SDS011;9791;50.820;4.406;2023-07-31T05:18:50;12.88;;;3.85;;
19312;SDS011;9791;50.820;4.406;2023-07-31T05:21:16;7.47;;;3.42;;
19312;SDS011;9791;50.820;4.406;2023-07-31T05:23:42;8.68;;;4.15;;
19312;SDS011;9791;50.820;4.406;2023-07-31T05:26:08;6.80;;;3.20;;
19312;SDS011;9791;50.820;4.406;2023-07-31T05:28:37;9.68;;;3.70;;
19312;SDS011;9791;50.820;4.406;2023-07-31T05:31:03;8.85;;;3.50;;
19312;SDS011;9791;50.820;4.406;2023-07-31T05:33:30;10.00;;;3.58;;
19312;SDS011;9791;50.820;4.406;2023-07-31T05:35:56;6.38;;;3.35;;
19312;SDS011;9791;50.820;4.406;2023-07-31T05:38:22;9.30;;;3.53;;
19312;SDS011;9791;50.820;4.406;2023-07-31T05:40:48;9.80;;;3.40;;
19312;SDS011;9791;50.820;4.406;2023-07-31T05:43:14;8.68;;;3.17;;
19312;SDS011;9791;50.820;4.406;2023-07-31T05:45:42;6.88;;;3.42;;
19312;SDS011;9791;50.820;4.406;2023-07-31T05:48:09;9.25;;;3.58;;
19312;SDS011;9791;50.820;4.406;2023-07-31T05:50:35;7.82;;;3.58;;
19312;SDS011;9791;50.820;4.406;2023-07-31T05:53:04;7.57;;;3.22;;
19312;SDS011;9791;50.820;4.406;2023-07-31T05:55:30;9.20;;;4.72;;
19312;SDS011;9791;50.820;4.406;2023-07-31T05:57:56;9.63;;;4.35;;
19312;SDS011;9791;50.820;4.406;2023-07-31T06:00:22;10.13;;;4.30;;
19312;SDS011;9791;50.820;4.406;2023-07-31T06:02:48;8.50;;;3.70;;
19312;SDS011;9791;50.820;4.406;2023-07-31T06:05:14;9.60;;;3.97;;
19312;SDS011;9791;50.820;4.406;2023-07-31T06:07:40;10.25;;;3.92;;
19312;SDS011;9791;50.820;4.406;2023-07-31T06:10:06;9.15;;;3.38;;
19312;SDS011;9791;50.820;4.406;2023-07-31T06:12:33;6.18;;;3.33;;
19312;SDS011;9791;50.820;4.406;2023-07-31T06:14:59;7.38;;;3.40;;
19312;SDS011;9791;50.820;4.406;2023-07-31T06:17:25;7.93;;;3.55;;
19312;SDS011;9791;50.820;4.406;2023-07-31T06:19:51;8.23;;;3.50;;
19312;SDS011;9791;50.820;4.406;2023-07-31T06:22:17;10.45;;;3.42;;
19312;SDS011;9791;50.820;4.406;2023-07-31T06:24:43;11.18;;;3.75;;
19312;SDS011;9791;50.820;4.406;2023-07-31T06:27:10;9.88;;;3.92;;
19312;SDS011;9791;50.820;4.406;2023-07-31T06:29:37;8.40;;;3.90;;
19312;SDS011;9791;50.820;4.406;2023-07-31T06:32:03;7.15;;;3.20;;
19312;SDS011;9791;50.820;4.406;2023-07-31T06:34:29;5.65;;;3.30;;
19312;SDS011;9791;50.820;4.406;2023-07-31T06:36:55;6.90;;;3.17;;
19312;SDS011;9791;50.820;4.406;2023-07-31T06:39:21;8.88;;;3.28;;
19312;SDS011;9791;50.820;4.406;2023-07-31T06:41:48;8.05;;;3.22;;
19312;SDS011;9791;50.820;4.406;2023-07-31T06:44:14;9.80;;;3.00;;
19312;SDS011;9791;50.820;4.406;2023-07-31T06:46:40;9.35;;;3.90;;
19312;SDS011;9791;50.820;4.406;2023-07-31T06:49:06;10.52;;;3.65;;
19312;SDS011;9791;50.820;4.406;2023-07-31T06:51:32;8.70;;;3.40;;
19312;SDS011;9791;50.820;4.406;2023-07-31T06:53:58;7.35;;;3.08;;
19312;SDS011;9791;50.820;4.406;2023-07-31T06:56:24;8.63;;;3.30;;
19312;SDS011;9791;50.820;4.406;2023-07-31T06:58:51;6.90;;;3.13;;
19312;SDS011;9791;50.820;4.406;2023-07-31T07:01:17;10.15;;;3.42;;
19312;SDS011;9791;50.820;4.406;2023-07-31T07:03:43;9.43;;;3.72;;
19312;SDS011;9791;50.820;4.406;2023-07-31T07:06:09;8.07;;;3.00;;
19312;SDS011;9791;50.820;4.406;2023-07-31T07:08:35;6.57;;;2.72;;
19312;SDS011;9791;50.820;4.406;2023-07-31T07:11:01;7.22;;;2.83;;
19312;SDS011;9791;50.820;4.406;2023-07-31T07:13:27;9.02;;;3.67;;
19312;SDS011;9791;50.820;4.406;2023-07-31T07:15:53;7.63;;;2.88;;
19312;SDS011;9791;50.820;4.406;2023-07-31T07:18:19;8.57;;;3.17;;
19312;SDS011;9791;50.820;4.406;2023-07-31T07:20:49;8.25;;;3.10;;
19312;SDS011;9791;50.820;4.406;2023-07-31T07:23:16;9.80;;;3.28;;
19312;SDS011;9791;50.820;4.406;2023-07-31T07:25:42;9.13;;;3.00;;
19312;SDS011;9791;50.820;4.406;2023-07-31T07:28:09;6.07;;;3.13;;
19312;SDS011;9791;50.820;4.406;2023-07-31T07:30:35;8.82;;;3.13;;
19312;SDS011;9791;50.820;4.406;2023-07-31T07:33:01;8.35;;;2.88;;
19312;SDS011;9791;50.820;4.406;2023-07-31T07:35:27;6.82;;;3.20;;
19312;SDS011;9791;50.820;4.406;2023-07-31T07:37:53;7.63;;;3.05;;
19312;SDS011;9791;50.820;4.406;2023-07-31T07:40:20;8.23;;;3.13;;
19312;SDS011;9791;50.820;4.406;2023-07-31T07:42:46;8.75;;;2.75;;
19312;SDS011;9791;50.820;4.406;2023-07-31T07:45:12;7.13;;;3.17;;
19312;SDS011;9791;50.820;4.406;2023-07-31T07:47:40;5.38;;;2.63;;
19312;SDS011;9791;50.820;4.406;2023-07-31T07:50:07;10.23;;;2.50;;
19312;SDS011;9791;50.820;4.406;2023-07-31T07:52:33;8.98;;;3.10;;
19312;SDS011;9791;50.820;4.406;2023-07-31T07:54:59;7.78;;;2.70;;
19312;SDS011;9791;50.820;4.406;2023-07-31T07:57:26;8.18;;;3.03;;
19312;SDS011;9791;50.820;4.406;2023-07-31T07:59:52;7.20;;;2.88;;
19312;SDS011;9791;50.820;4.406;2023-07-31T08:02:18;7.25;;;2.92;;
19312;SDS011;9791;50.820;4.406;2023-07-31T08:04:44;6.45;;;3.00;;
19312;SDS011;9791;50.820;4.406;2023-07-31T08:07:11;6.43;;;2.75;;
19312;SDS011;9791;50.820;4.406;2023-07-31T08:09:38;6.60;;;2.25;;
19312;SDS011;9791;50.820;4.406;2023-07-31T08:12:04;7.45;;;3.00;;
19312;SDS011;9791;50.820;4.406;2023-07-31T08:14:30;9.27;;;3.20;;
19312;SDS011;9791;50.820;4.406;2023-07-31T08:16:56;5.70;;;2.60;;
19312;SDS011;9791;50.820;4.406;2023-07-31T08:19:22;6.45;;;2.60;;
19312;SDS011;9791;50.820;4.406;2023-07-31T08:21:48;10.10;;;3.10;;
19312;SDS011;9791;50.820;4.406;2023-07-31T08:24:14;5.10;;;2.53;;
19312;SDS011;9791;50.820;4.406;2023-07-31T08:26:40;8.05;;;2.95;;
19312;SDS011;9791;50.820;4.406;2023-07-31T08:29:06;6.13;;;2.40;;
19312;SDS011;9791;50.820;4.406;2023-07-31T08:31:32;5.93;;;2.53;;
19312;SDS011;9791;50.820;4.406;2023-07-31T08:33:59;7.10;;;3.08;;
19312;SDS011;9791;50.820;4.406;2023-07-31T08:36:25;4.85;;;2.30;;
19312;SDS011;9791;50.820;4.406;2023-07-31T08:38:51;5.35;;;2.45;;
19312;SDS011;9791;50.820;4.406;2023-07-31T08:41:18;6.35;;;2.83;;
19312;SDS011;9791;50.820;4.406;2023-07-31T08:43:44;7.55;;;3.08;;
19312;SDS011;9791;50.820;4.406;2023-07-31T08:46:11;6.75;;;2.88;;
19312;SDS011;9791;50.820;4.406;2023-07-31T08:48:39;9.05;;;2.83;;
19312;SDS011;9791;50.820;4.406;2023-07-31T08:51:06;6.90;;;2.47;;
19312;SDS011;9791;50.820;4.406;2023-07-31T08:53:32;5.00;;;2.75;;
19312;SDS011;9791;50.820;4.406;2023-07-31T08:55:58;4.88;;;2.55;;
19312;SDS011;9791;50.820;4.406;2023-07-31T08:58:25;8.85;;;2.88;;
19312;SDS011;9791;50.820;4.406;2023-07-31T09:00:51;8.68;;;3.08;;
19312;SDS011;9791;50.820;4.406;2023-07-31T09:03:18;7.28;;;2.60;;
19312;SDS011;9791;50.820;4.406;2023-07-31T09:05:45;5.07;;;2.65;;
19312;SDS011;9791;50.820;4.406;2023-07-31T09:08:11;5.15;;;2.63;;
19312;SDS011;9791;50.820;4.406;2023-07-31T09:10:44;9.55;;;3.30;;
19312;SDS011;9791;50.820;4.406;2023-07-31T09:13:16;8.30;;;2.80;;
19312;SDS011;9791;50.820;4.406;2023-07-31T09:15:43;7.03;;;3.28;;
19312;SDS011;9791;50.820;4.406;2023-07-31T09:18:10;7.20;;;3.03;;
19312;SDS011;9791;50.820;4.406;2023-07-31T09:20:36;7.10;;;2.95;;
19312;SDS011;9791;50.820;4.406;2023-07-31T09:23:08;6.38;;;2.58;;
19312;SDS011;9791;50.820;4.406;2023-07-31T09:25:34;6.72;;;2.72;;
19312;SDS011;9791;50.820;4.406;2023-07-31T09:28:02;8.23;;;3.20;;
19312;SDS011;9791;50.820;4.406;2023-07-31T09:30:28;11.77;;;2.58;;
19312;SDS011;9791;50.820;4.406;2023-07-31T09:33:01;7.93;;;3.08;;
19312;SDS011;9791;50.820;4.406;2023-07-31T09:35:28;8.90;;;3.03;;
19312;SDS011;9791;50.820;4.406;2023-07-31T09:38:05;6.35;;;2.97;;
19312;SDS011;9791;50.820;4.406;2023-07-31T09:40:35;5.95;;;2.65;;
19312;SDS011;9791;50.820;4.406;2023-07-31T09:43:02;6.03;;;2.90;;
19312;SDS011;9791;50.820;4.406;2023-07-31T09:45:30;8.48;;;2.90;;
19312;SDS011;9791;50.820;4.406;2023-07-31T09:47:56;7.43;;;3.10;;
19312;SDS011;9791;50.820;4.406;2023-07-31T09:50:23;6.78;;;3.47;;
19312;SDS011;9791;50.820;4.406;2023-07-31T09:52:51;5.93;;;2.90;;
19312;SDS011;9791;50.820;4.406;2023-07-31T09:55:18;8.35;;;3.35;;
19312;SDS011;9791;50.820;4.406;2023-07-31T09:57:48;9.07;;;3.47;;
19312;SDS011;9791;50.820;4.406;2023-07-31T10:00:15;6.90;;;3.10;;
19312;SDS011;9791;50.820;4.406;2023-07-31T10:02:41;9.45;;;3.53;;
19312;SDS011;9791;50.820;4.406;2023-07-31T10:05:10;8.07;;;3.17;;
19312;SDS011;9791;50.820;4.406;2023-07-31T10:07:38;8.45;;;3.40;;
19312;SDS011;9791;50.820;4.406;2023-07-31T10:10:05;7.60;;;3.20;;
19312;SDS011;9791;50.820;4.406;2023-07-31T10:12:33;8.00;;;4.13;;
19312;SDS011;9791;50.820;4.406;2023-07-31T10:15:00;9.85;;;3.25;;
19312;SDS011;9791;50.820;4.406;2023-07-31T10:17:26;8.55;;;3.72;;
19312;SDS011;9791;50.820;4.406;2023-07-31T10:19:53;7.85;;;3.30;;
19312;SDS011;9791;50.820;4.406;2023-07-31T10:22:19;11.18;;;4.25;;
19312;SDS011;9791;50.820;4.406;2023-07-31T10:24:45;8.57;;;3.65;;
19312;SDS011;9791;50.820;4.406;2023-07-31T10:27:12;9.00;;;3.33;;
19312;SDS011;9791;50.820;4.406;2023-07-31T10:29:38;7.32;;;3.38;;
19312;SDS011;9791;50.820;4.406;2023-07-31T10:32:06;7.60;;;3.47;;
19312;SDS011;9791;50.820;4.406;2023-07-31T10:34:36;6.60;;;3.55;;
19312;SDS011;9791;50.820;4.406;2023-07-31T10:40:03;8.90;;;3.83;;
19312;SDS011;9791;50.820;4.406;2023-07-31T10:42:34;7.97;;;3.50;;
19312;SDS011;9791;50.820;4.406;2023-07-31T10:45:04;6.78;;;3.20;;
19312;SDS011;9791;50.820;4.406;2023-07-31T10:47:36;7.22;;;3.33;;
19312;SDS011;9791;50.820;4.406;2023-07-31T10:50:21;9.00;;;4.18;;
19312;SDS011;9791;50.820;4.406;2023-07-31T10:52:52;7.55;;;3.35;;
19312;SDS011;9791;50.820;4.406;2023-07-31T10:57:47;11.80;;;3.92;;
19312;SDS011;9791;50.820;4.406;2023-07-31T11:08:15;7.85;;;3.78;;
19312;SDS011;9791;50.820;4.406;2023-07-31T11:10:42;9.35;;;3.70;;
19312;SDS011;9791;50.820;4.406;2023-07-31T11:13:09;7.45;;;3.33;;
19312;SDS011;9791;50.820;4.406;2023-07-31T11:15:35;11.52;;;4.20;;
19312;SDS011;9791;50.820;4.406;2023-07-31T11:18:02;7.65;;;3.72;;
19312;SDS011;9791;50.820;4.406;2023-07-31T11:20:30;12.02;;;4.30;;
19312;SDS011;9791;50.820;4.406;2023-07-31T11:22:58;7.50;;;3.80;;
19312;SDS011;9791;50.820;4.406;2023-07-31T11:25:24;9.63;;;3.70;;
19312;SDS011;9791;50.820;4.406;2023-07-31T11:27:50;8.93;;;4.10;;
19312;SDS011;9791;50.820;4.406;2023-07-31T11:30:19;8.55;;;3.70;;
19312;SDS011;9791;50.820;4.406;2023-07-31T11:32:45;12.07;;;3.72;;
19312;SDS011;9791;50.820;4.406;2023-07-31T11:35:14;6.78;;;3.20;;
19312;SDS011;9791;50.820;4.406;2023-07-31T11:37:43;11.13;;;3.35;;
19312;SDS011;9791;50.820;4.406;2023-07-31T11:40:10;9.88;;;3.75;;
19312;SDS011;9791;50.820;4.406;2023-07-31T11:42:38;6.38;;;3.40;;
19312;SDS011;9791;50.820;4.406;2023-07-31T11:45:04;7.55;;;3.40;;
19312;SDS011;9791;50.820;4.406;2023-07-31T11:47:34;7.60;;;3.75;;
19312;SDS011;9791;50.820;4.406;2023-07-31T11:50:01;10.57;;;3.72;;
19312;SDS011;9791;50.820;4.406;2023-07-31T11:52:28;6.55;;;3.30;;
19312;SDS011;9791;50.820;4.406;2023-07-31T11:54:55;8.18;;;3.75;;
19312;SDS011;9791;50.820;4.406;2023-07-31T11:57:21;9.30;;;3.60;;
19312;SDS011;9791;50.820;4.406;2023-07-31T11:59:48;9.10;;;3.53;;
19312;SDS011;9791;50.820;4.406;2023-07-31T12:02:16;6.55;;;3.40;;
19312;SDS011;9791;50.820;4.406;2023-07-31T12:04:43;7.18;;;3.15;;
19312;SDS011;9791;50.820;4.406;2023-07-31T12:07:09;7.30;;;3.55;;
19312;SDS011;9791;50.820;4.406;2023-07-31T12:09:35;10.18;;;4.20;;
19312;SDS011;9791;50.820;4.406;2023-07-31T12:12:01;8.65;;;3.63;;
19312;SDS011;9791;50.820;4.406;2023-07-31T12:14:28;11.00;;;3.53;;
19312;SDS011;9791;50.820;4.406;2023-07-31T12:16:58;6.50;;;2.67;;
19312;SDS011;9791;50.820;4.406;2023-07-31T12:19:25;8.15;;;3.65;;
19312;SDS011;9791;50.820;4.406;2023-07-31T12:21:55;8.25;;;3.63;;
19312;SDS011;9791;50.820;4.406;2023-07-31T12:24:21;7.13;;;3.08;;
19312;SDS011;9791;50.820;4.406;2023-07-31T12:26:47;7.38;;;3.47;;
19312;SDS011;9791;50.820;4.406;2023-07-31T12:29:14;8.80;;;3.30;;
19312;SDS011;9791;50.820;4.406;2023-07-31T12:31:43;9.88;;;3.60;;
19312;SDS011;9791;50.820;4.406;2023-07-31T12:34:15;6.68;;;3.42;;
19312;SDS011;9791;50.820;4.406;2023-07-31T12:36:43;10.45;;;3.55;;
19312;SDS011;9791;50.820;4.406;2023-07-31T12:39:09;9.75;;;3.60;;
19312;SDS011;9791;50.820;4.406;2023-07-31T12:41:35;7.22;;;3.42;;
19312;SDS011;9791;50.820;4.406;2023-07-31T12:44:02;8.75;;;3.53;;
19312;SDS011;9791;50.820;4.406;2023-07-31T12:46:28;7.18;;;3.05;;
19312;SDS011;9791;50.820;4.406;2023-07-31T12:48:54;7.07;;;3.50;;
19312;SDS011;9791;50.820;4.406;2023-07-31T12:51:21;7.40;;;3.22;;
19312;SDS011;9791;50.820;4.406;2023-07-31T12:53:47;8.85;;;3.47;;
19312;SDS011;9791;50.820;4.406;2023-07-31T12:56:13;10.88;;;3.90;;
19312;SDS011;9791;50.820;4.406;2023-07-31T12:58:39;8.88;;;3.90;;
19312;SDS011;9791;50.820;4.406;2023-07-31T13:01:05;8.90;;;3.55;;
19312;SDS011;9791;50.820;4.406;2023-07-31T13:03:31;6.93;;;3.40;;
19312;SDS011;9791;50.820;4.406;2023-07-31T13:05:58;7.13;;;3.28;;
19312;SDS011;9791;50.820;4.406;2023-07-31T13:08:24;8.05;;;3.38;;
19312;SDS011;9791;50.820;4.406;2023-07-31T13:10:50;9.57;;;4.10;;
19312;SDS011;9791;50.820;4.406;2023-07-31T13:13:16;7.78;;;3.80;;
19312;SDS011;9791;50.820;4.406;2023-07-31T13:15:43;9.00;;;3.72;;
19312;SDS011;9791;50.820;4.406;2023-07-31T13:18:10;8.82;;;3.45;;
19312;SDS011;9791;50.820;4.406;2023-07-31T13:20:36;6.97;;;3.20;;
19312;SDS011;9791;50.820;4.406;2023-07-31T13:23:02;8.60;;;3.15;;
19312;SDS011;9791;50.820;4.406;2023-07-31T13:25:28;7.65;;;3.35;;
19312;SDS011;9791;50.820;4.406;2023-07-31T13:27:54;7.30;;;2.70;;
19312;SDS011;9791;50.820;4.406;2023-07-31T13:30:20;6.68;;;2.97;;
19312;SDS011;9791;50.820;4.406;2023-07-31T13:32:47;5.40;;;2.40;;
19312;SDS011;9791;50.820;4.406;2023-07-31T13:35:13;7.18;;;2.90;;
19312;SDS011;9791;50.820;4.406;2023-07-31T13:37:39;6.70;;;2.97;;
19312;SDS011;9791;50.820;4.406;2023-07-31T13:40:05;5.22;;;2.13;;
19312;SDS011;9791;50.820;4.406;2023-07-31T13:42:31;4.70;;;2.55;;
19312;SDS011;9791;50.820;4.406;2023-07-31T13:44:57;6.20;;;2.60;;
19312;SDS011;9791;50.820;4.406;2023-07-31T13:47:23;6.70;;;2.75;;
19312;SDS011;9791;50.820;4.406;2023-07-31T13:49:50;7.60;;;2.67;;
19312;SDS011;9791;50.820;4.406;2023-07-31T13:52:16;8.50;;;3.50;;
19312;SDS011;9791;50.820;4.406;2023-07-31T13:54:42;7.32;;;2.95;;
19312;SDS011;9791;50.820;4.406;2023-07-31T13:57:08;7.55;;;2.90;;
19312;SDS011;9791;50.820;4.406;2023-07-31T13:59:34;8.63;;;2.83;;
19312;SDS011;9791;50.820;4.406;2023-07-31T14:02:01;7.35;;;2.47;;
19312;SDS011;9791;50.820;4.406;2023-07-31T14:04:27;7.68;;;2.75;;
19312;SDS011;9791;50.820;4.406;2023-07-31T14:06:53;6.38;;;2.60;;
19312;SDS011;9791;50.820;4.406;2023-07-31T14:09:19;5.78;;;2.83;;
19312;SDS011;9791;50.820;4.406;2023-07-31T14:11:45;5.70;;;2.58;;
19312;SDS011;9791;50.820;4.406;2023-07-31T14:14:11;7.75;;;2.78;;
19312;SDS011;9791;50.820;4.406;2023-07-31T14:16:38;5.72;;;2.78;;
19312;SDS011;9791;50.820;4.406;2023-07-31T14:19:04;6.68;;;2.80;;
19312;SDS011;9791;50.820;4.406;2023-07-31T14:21:32;4.55;;;2.33;;
19312;SDS011;9791;50.820;4.406;2023-07-31T14:23:58;6.78;;;2.85;;
19312;SDS011;9791;50.820;4.406;2023-07-31T14:26:24;5.40;;;2.67;;
19312;SDS011;9791;50.820;4.406;2023-07-31T14:28:50;8.68;;;2.90;;
19312;SDS011;9791;50.820;4.406;2023-07-31T14:31:16;6.07;;;2.95;;
19312;SDS011;9791;50.820;4.406;2023-07-31T14:33:43;6.47;;;2.70;;
19312;SDS011;9791;50.820;4.406;2023-07-31T14:36:09;5.15;;;2.10;;
19312;SDS011;9791;50.820;4.406;2023-07-31T14:38:35;6.30;;;2.47;;
19312;SDS011;9791;50.820;4.406;2023-07-31T14:41:01;6.45;;;2.63;;
19312;SDS011;9791;50.820;4.406;2023-07-31T14:43:27;5.90;;;2.30;;
19312;SDS011;9791;50.820;4.406;2023-07-31T14:45:53;7.43;;;2.47;;
19312;SDS011;9791;50.820;4.406;2023-07-31T14:48:22;7.88;;;2.40;;
19312;SDS011;9791;50.820;4.406;2023-07-31T14:50:48;5.70;;;2.35;;
19312;SDS011;9791;50.820;4.406;2023-07-31T14:53:16;5.28;;;2.15;;
19312;SDS011;9791;50.820;4.406;2023-07-31T14:55:42;4.22;;;2.00;;
19312;SDS011;9791;50.820;4.406;2023-07-31T14:58:08;5.63;;;2.00;;
19312;SDS011;9791;50.820;4.406;2023-07-31T15:00:36;4.90;;;2.22;;
19312;SDS011;9791;50.820;4.406;2023-07-31T15:03:02;4.13;;;1.98;;
19312;SDS011;9791;50.820;4.406;2023-07-31T15:05:28;4.18;;;1.90;;
19312;SDS011;9791;50.820;4.406;2023-07-31T15:07:54;4.75;;;2.00;;
19312;SDS011;9791;50.820;4.406;2023-07-31T15:10:20;4.07;;;1.85;;
19312;SDS011;9791;50.820;4.406;2023-07-31T15:12:46;3.97;;;1.77;;